createdAt,value
2023-03-29T00:01:35.965Z,8.20
2023-03-29T00:04:04.592Z,8.20
2023-03-29T00:06:36.776Z,8.20
2023-03-29T00:09:06.235Z,8.20
2023-03-29T00:11:33.394Z,8.20
2023-03-29T00:14:02.446Z,8.20
2023-03-29T00:16:34.352Z,8.20
2023-03-29T00:19:01.352Z,8.30
2023-03-29T00:21:30.794Z,8.30
2023-03-29T00:23:57.962Z,8.30
2023-03-29T00:26:27.358Z,8.30
2023-03-29T00:28:56.780Z,8.40
2023-03-29T00:31:31.727Z,8.40
2023-03-29T00:34:01.510Z,8.30
2023-03-29T00:36:31.729Z,8.30
2023-03-29T00:38:58.683Z,8.30
2023-03-29T00:41:28.125Z,8.30
2023-03-29T00:44:02.621Z,8.30
2023-03-29T00:46:30.547Z,8.30
2023-03-29T00:49:01.968Z,8.30
2023-03-29T00:51:34.429Z,8.30
2023-03-29T00:54:02.388Z,8.30
2023-03-29T00:56:35.405Z,8.30
2023-03-29T00:59:19.740Z,8.30
2023-03-29T01:01:59.897Z,8.40
2023-03-29T01:04:41.725Z,8.40
2023-03-29T01:07:21.726Z,8.40
2023-03-29T01:10:13.128Z,8.30
2023-03-29T01:12:51.749Z,8.40
2023-03-29T01:15:25.207Z,8.40
2023-03-29T01:17:53.843Z,8.40
2023-03-29T01:20:45.287Z,8.40
2023-03-29T01:23:27.367Z,8.40
2023-03-29T01:26:10.085Z,8.40
2023-03-29T01:28:45.891Z,8.40
2023-03-29T01:31:23.206Z,8.40
2023-03-29T01:34:01.114Z,8.40
2023-03-29T01:36:44.802Z,8.40
2023-03-29T01:39:11.827Z,8.40
2023-03-29T01:42:15.528Z,8.50
2023-03-29T01:44:55.605Z,8.50
2023-03-29T01:47:22.535Z,8.50
2023-03-29T01:50:27.567Z,8.50
2023-03-29T01:53:18.189Z,8.50
2023-03-29T01:55:56.907Z,8.50
2023-03-29T01:58:31.412Z,8.50
2023-03-29T02:01:02.081Z,8.50
2023-03-29T02:03:31.639Z,8.50
2023-03-29T02:05:58.638Z,8.50
2023-03-29T02:08:27.827Z,8.50
2023-03-29T02:10:57.909Z,8.50
2023-03-29T02:13:29.608Z,8.50
2023-03-29T02:16:03.271Z,8.50
2023-03-29T02:18:34.749Z,8.50
2023-03-29T02:21:05.622Z,8.50
2023-03-29T02:23:37.372Z,8.50
2023-03-29T02:26:07.037Z,8.50
2023-03-29T02:28:34.120Z,8.50
2023-03-29T02:31:06.340Z,8.50
2023-03-29T02:33:43.594Z,8.50
2023-03-29T02:36:14.049Z,8.50
2023-03-29T02:38:43.777Z,8.50
2023-03-29T02:41:13.288Z,8.50
2023-03-29T02:43:46.196Z,8.50
2023-03-29T02:46:15.809Z,8.50
2023-03-29T02:48:47.636Z,8.50
2023-03-29T02:51:26.277Z,8.50
2023-03-29T02:54:05.013Z,8.60
2023-03-29T02:56:48.411Z,8.60
2023-03-29T02:59:19.506Z,8.60
2023-03-29T03:01:49.683Z,8.60
2023-03-29T03:04:20.744Z,8.60
2023-03-29T03:06:49.385Z,8.60
2023-03-29T03:09:18.487Z,8.60
2023-03-29T03:11:48.488Z,8.70
2023-03-29T03:14:22.872Z,8.70
2023-03-29T03:16:55.272Z,8.80
2023-03-29T03:19:22.340Z,8.80
2023-03-29T03:21:54.674Z,8.80
2023-03-29T03:24:22.000Z,8.80
2023-03-29T03:26:50.078Z,8.80
2023-03-29T03:29:21.760Z,8.80
2023-03-29T03:32:09.854Z,8.80
2023-03-29T03:34:56.791Z,8.90
2023-03-29T03:37:29.285Z,8.90
2023-03-29T03:39:58.540Z,8.90
2023-03-29T03:42:31.036Z,9.00
2023-03-29T03:45:01.888Z,8.90
2023-03-29T03:47:34.660Z,9.00
2023-03-29T03:50:19.705Z,8.90
2023-03-29T03:52:46.998Z,8.90
2023-03-29T03:55:14.670Z,9.00
2023-03-29T03:57:52.614Z,8.90
2023-03-29T04:00:21.236Z,8.90
2023-03-29T04:03:06.233Z,8.90
2023-03-29T04:05:41.337Z,8.90
2023-03-29T04:08:10.912Z,8.90
2023-03-29T04:11:01.182Z,8.90
2023-03-29T04:13:37.155Z,8.90
2023-03-29T04:16:35.881Z,9.00
2023-03-29T04:19:21.258Z,8.90
2023-03-29T04:21:49.585Z,8.90
2023-03-29T04:24:17.282Z,8.90
2023-03-29T04:26:57.327Z,8.90
2023-03-29T04:29:24.929Z,8.90
2023-03-29T04:32:10.567Z,8.90
2023-03-29T04:34:45.020Z,8.80
2023-03-29T04:37:14.208Z,8.80
2023-03-29T04:39:46.356Z,8.80
2023-03-29T04:42:16.436Z,8.80
2023-03-29T04:44:46.648Z,8.80
2023-03-29T04:47:21.490Z,8.80
2023-03-29T04:49:55.735Z,8.80
2023-03-29T04:52:33.319Z,8.80
2023-03-29T04:55:02.584Z,8.80
2023-03-29T04:57:56.651Z,8.80
2023-03-29T05:00:31.627Z,8.70
2023-03-29T05:03:22.103Z,8.70
2023-03-29T05:06:07.713Z,8.70
2023-03-29T05:08:39.624Z,8.70
2023-03-29T05:11:30.557Z,8.60
2023-03-29T05:14:02.332Z,8.60
2023-03-29T05:16:32.457Z,8.60
2023-03-29T05:19:06.568Z,8.60
2023-03-29T05:21:38.691Z,8.60
2023-03-29T05:24:09.073Z,8.50
2023-03-29T05:26:47.855Z,8.50
2023-03-29T05:29:17.200Z,8.40
2023-03-29T05:31:50.099Z,8.50
2023-03-29T05:34:20.114Z,8.40
2023-03-29T05:36:56.888Z,8.50
2023-03-29T05:39:24.962Z,8.50
2023-03-29T05:41:53.100Z,8.50
2023-03-29T05:44:32.427Z,8.50
2023-03-29T05:47:09.672Z,8.50
2023-03-29T05:49:38.800Z,8.50
2023-03-29T05:52:16.746Z,8.60
2023-03-29T05:54:46.275Z,8.60
2023-03-29T05:57:16.321Z,8.60
2023-03-29T05:59:48.388Z,8.60
2023-03-29T06:02:20.165Z,8.60
2023-03-29T06:04:55.558Z,8.60
2023-03-29T06:07:24.879Z,8.70
2023-03-29T06:10:12.748Z,8.80
2023-03-29T06:12:49.657Z,8.90
2023-03-29T06:15:25.648Z,8.90
2023-03-29T06:18:00.032Z,9.00
2023-03-29T06:20:27.140Z,9.00
2023-03-29T06:23:00.151Z,9.00
2023-03-29T06:25:30.001Z,9.00
2023-03-29T06:28:01.054Z,9.10
2023-03-29T06:30:28.816Z,9.20
2023-03-29T06:33:01.144Z,9.20
2023-03-29T06:35:50.941Z,9.30
2023-03-29T06:38:22.754Z,9.40
2023-03-29T06:41:12.474Z,9.40
2023-03-29T06:43:57.859Z,9.50
2023-03-29T06:46:32.484Z,9.50
2023-03-29T06:49:06.234Z,9.50
2023-03-29T06:51:42.280Z,9.60
2023-03-29T06:54:11.739Z,9.60
2023-03-29T06:56:47.600Z,9.60
2023-03-29T06:59:18.392Z,9.60
2023-03-29T07:02:09.782Z,9.60
2023-03-29T07:04:47.618Z,9.70
2023-03-29T07:07:51.508Z,9.60
2023-03-29T07:10:32.823Z,9.70
2023-03-29T07:13:22.464Z,9.70
2023-03-29T07:15:53.815Z,9.60
2023-03-29T07:18:29.369Z,9.60
2023-03-29T07:21:04.770Z,9.70
2023-03-29T07:23:37.555Z,9.70
2023-03-29T07:26:10.585Z,9.70
2023-03-29T07:28:39.953Z,9.60
2023-03-29T07:31:11.373Z,9.60
2023-03-29T07:33:49.613Z,9.60
2023-03-29T07:36:16.845Z,9.50
2023-03-29T07:38:44.466Z,9.60
2023-03-29T07:41:18.082Z,9.60
2023-03-29T07:43:51.936Z,9.70
2023-03-29T07:46:23.480Z,9.70
2023-03-29T07:48:50.745Z,9.80
2023-03-29T07:51:20.032Z,9.80
2023-03-29T07:53:55.284Z,9.90
2023-03-29T07:56:42.394Z,10.00
2023-03-29T07:59:28.368Z,10.10
2023-03-29T08:02:05.362Z,10.10
2023-03-29T08:04:40.341Z,10.20
2023-03-29T08:07:19.310Z,10.30
2023-03-29T08:10:09.134Z,10.40
2023-03-29T08:12:56.749Z,10.50
2023-03-29T08:15:38.003Z,10.60
2023-03-29T08:18:07.286Z,10.70
2023-03-29T08:20:36.787Z,10.70
2023-03-29T08:23:06.802Z,10.70
2023-03-29T08:25:35.189Z,10.80
2023-03-29T08:28:04.683Z,10.80
2023-03-29T08:30:40.394Z,10.90
2023-03-29T08:33:12.310Z,10.90
2023-03-29T08:35:39.759Z,10.80
2023-03-29T08:38:16.898Z,10.70
2023-03-29T08:40:48.125Z,10.70
2023-03-29T08:43:44.721Z,10.70
2023-03-29T08:46:42.360Z,10.60
2023-03-29T08:49:30.818Z,10.50
2023-03-29T08:52:04.637Z,10.50
2023-03-29T08:54:47.552Z,10.50
2023-03-29T08:57:49.292Z,10.50
2023-03-29T09:00:38.642Z,10.50
2023-03-29T09:03:22.794Z,10.50
2023-03-29T09:06:05.356Z,10.50
2023-03-29T09:08:39.966Z,10.50
2023-03-29T09:11:24.384Z,10.50
2023-03-29T09:13:57.855Z,10.50
2023-03-29T09:16:41.016Z,10.50
2023-03-29T09:19:46.628Z,10.60
2023-03-29T09:22:29.369Z,10.60
2023-03-29T09:25:11.429Z,10.60
2023-03-29T09:27:59.931Z,10.60
2023-03-29T09:30:43.231Z,10.70
2023-03-29T09:33:13.590Z,10.70
2023-03-29T09:36:24.613Z,10.80
2023-03-29T09:38:55.635Z,10.90
2023-03-29T09:41:43.828Z,11.00
2023-03-29T09:44:27.690Z,11.10
2023-03-29T09:47:06.993Z,11.10
2023-03-29T09:49:38.279Z,11.20
2023-03-29T09:52:09.006Z,11.30
2023-03-29T09:54:36.522Z,11.20
2023-03-29T09:57:28.869Z,11.20
2023-03-29T09:59:59.111Z,11.20
2023-03-29T10:02:30.645Z,11.20
2023-03-29T10:05:00.954Z,11.30
2023-03-29T10:07:44.621Z,11.30
2023-03-29T10:10:21.147Z,11.30
2023-03-29T10:12:50.495Z,11.40
2023-03-29T10:15:29.136Z,11.50
2023-03-29T10:18:06.752Z,11.50
2023-03-29T10:20:42.340Z,11.50
2023-03-29T10:23:17.595Z,11.50
2023-03-29T10:25:47.142Z,11.60
2023-03-29T10:28:17.679Z,11.60
2023-03-29T10:30:52.451Z,11.70
2023-03-29T10:33:20.621Z,11.70
2023-03-29T10:35:50.681Z,11.70
2023-03-29T10:38:20.964Z,11.60
2023-03-29T10:40:54.017Z,11.50
2023-03-29T10:43:29.687Z,11.50
2023-03-29T10:46:13.235Z,11.50
2023-03-29T10:48:46.013Z,11.50
2023-03-29T10:51:16.457Z,11.50
2023-03-29T10:53:46.720Z,11.50
2023-03-29T10:56:16.889Z,11.50
2023-03-29T10:58:49.950Z,11.50
2023-03-29T11:01:22.423Z,11.50
2023-03-29T11:04:04.163Z,11.50
2023-03-29T11:06:37.522Z,11.50
2023-03-29T11:09:16.155Z,11.50
2023-03-29T11:12:08.301Z,11.50
2023-03-29T11:15:03.140Z,11.50
2023-03-29T11:17:51.925Z,11.50
2023-03-29T11:20:39.771Z,11.50
2023-03-29T11:23:20.959Z,11.60
2023-03-29T11:26:11.948Z,11.70
2023-03-29T11:28:44.705Z,11.70
2023-03-29T11:31:17.418Z,11.80
2023-03-29T11:33:58.145Z,11.90
2023-03-29T11:36:40.831Z,12.00
2023-03-29T11:39:20.219Z,12.10
2023-03-29T11:41:48.772Z,12.10
2023-03-29T11:44:22.768Z,12.20
2023-03-29T11:47:09.972Z,12.30
2023-03-29T11:49:49.296Z,12.30
2023-03-29T11:52:25.092Z,12.30
2023-03-29T11:54:57.441Z,12.40
2023-03-29T11:57:29.274Z,12.50
2023-03-29T12:00:15.788Z,12.50
2023-03-29T12:02:55.822Z,12.50
2023-03-29T12:05:32.719Z,12.50
2023-03-29T12:08:05.298Z,12.50
2023-03-29T12:10:43.468Z,12.50
2023-03-29T12:13:32.364Z,12.50
2023-03-29T12:16:06.191Z,12.50
2023-03-29T12:18:45.456Z,12.60
2023-03-29T12:21:17.122Z,12.70
2023-03-29T12:23:47.375Z,12.70
2023-03-29T12:26:34.959Z,12.90
2023-03-29T12:29:07.388Z,13.10
2023-03-29T12:31:34.283Z,13.30
2023-03-29T12:34:04.397Z,13.30
2023-03-29T12:37:18.395Z,13.50
2023-03-29T12:40:25.282Z,13.60
2023-03-29T12:43:25.406Z,13.70
2023-03-29T12:46:24.598Z,13.60
2023-03-29T12:48:57.349Z,13.50
2023-03-29T12:51:36.087Z,13.30
2023-03-29T12:54:07.371Z,13.30
2023-03-29T12:57:03.215Z,13.20
2023-03-29T12:59:49.340Z,13.10
2023-03-29T13:02:17.646Z,13.10
2023-03-29T13:04:51.011Z,13.10
2023-03-29T13:07:24.186Z,13.10
2023-03-29T13:09:56.822Z,13.10
2023-03-29T13:12:33.433Z,13.00
2023-03-29T13:15:07.521Z,12.90
2023-03-29T13:18:06.474Z,12.90
2023-03-29T13:20:54.776Z,13.00
2023-03-29T13:23:36.457Z,13.10
2023-03-29T13:26:27.715Z,13.20
2023-03-29T13:28:56.641Z,13.30
2023-03-29T13:31:46.784Z,13.40
2023-03-29T13:34:41.995Z,13.40
2023-03-29T13:37:36.683Z,13.30
2023-03-29T13:40:29.776Z,13.30
2023-03-29T13:43:00.228Z,13.30
2023-03-29T13:45:29.137Z,13.30
2023-03-29T13:48:29.127Z,13.30
2023-03-29T13:51:02.223Z,13.50
2023-03-29T13:53:46.296Z,13.60
2023-03-29T13:56:17.855Z,13.70
2023-03-29T13:58:58.117Z,13.70
2023-03-29T14:01:38.347Z,13.90
2023-03-29T14:04:08.835Z,14.00
2023-03-29T14:06:42.836Z,14.10
2023-03-29T14:09:11.217Z,14.20
2023-03-29T14:11:43.029Z,14.30
2023-03-29T14:14:12.777Z,14.30
2023-03-29T14:16:40.742Z,14.30
2023-03-29T14:19:17.469Z,14.30
2023-03-29T14:21:46.912Z,14.30
2023-03-29T14:24:18.787Z,14.40
2023-03-29T14:26:48.708Z,14.30
2023-03-29T14:29:18.346Z,14.30
2023-03-29T14:31:45.537Z,14.20
2023-03-29T14:34:18.724Z,14.20
2023-03-29T14:36:46.791Z,14.20
2023-03-29T14:39:21.211Z,14.30
2023-03-29T14:41:54.762Z,14.30
2023-03-29T14:44:30.030Z,14.30
2023-03-29T14:46:56.988Z,14.40
2023-03-29T14:49:28.623Z,14.40
2023-03-29T14:51:55.738Z,14.40
2023-03-29T14:54:27.029Z,14.40
2023-03-29T14:56:54.169Z,14.50
2023-03-29T14:59:36.984Z,14.50
2023-03-29T15:02:22.539Z,14.50
2023-03-29T15:05:05.108Z,14.50
2023-03-29T15:07:36.551Z,14.40
2023-03-29T15:10:05.603Z,14.40
2023-03-29T15:12:38.021Z,14.40
2023-03-29T15:15:10.471Z,14.40
2023-03-29T15:17:51.653Z,14.50
2023-03-29T15:20:24.488Z,14.50
2023-03-29T15:23:08.121Z,14.50
2023-03-29T15:25:37.181Z,14.50
2023-03-29T15:28:20.764Z,14.40
2023-03-29T15:30:57.270Z,14.40
2023-03-29T15:33:37.630Z,14.40
2023-03-29T15:36:07.752Z,14.30
2023-03-29T15:38:43.146Z,14.30
2023-03-29T15:41:14.557Z,14.30
2023-03-29T15:43:42.105Z,14.30
2023-03-29T15:46:11.605Z,14.30
2023-03-29T15:48:44.078Z,14.30
2023-03-29T15:51:12.524Z,14.40
2023-03-29T15:53:42.271Z,14.30
2023-03-29T15:56:18.851Z,14.30
2023-03-29T15:58:45.793Z,14.20
2023-03-29T16:01:35.631Z,14.20
2023-03-29T16:04:16.526Z,14.10
2023-03-29T16:06:49.727Z,14.10
2023-03-29T16:09:21.991Z,14.10
2023-03-29T16:11:55.164Z,14.10
2023-03-29T16:14:24.183Z,14.10
2023-03-29T16:16:52.135Z,14.00
2023-03-29T16:19:19.548Z,14.00
2023-03-29T16:21:51.615Z,13.90
2023-03-29T16:24:25.837Z,13.90
2023-03-29T16:26:56.023Z,13.90
2023-03-29T16:29:24.617Z,13.90
2023-03-29T16:31:57.308Z,13.90
2023-03-29T16:34:24.463Z,13.80
2023-03-29T16:36:52.975Z,13.90
2023-03-29T16:39:22.512Z,13.80
2023-03-29T16:41:56.717Z,13.80
2023-03-29T16:44:27.957Z,13.70
2023-03-29T16:46:57.468Z,13.70
2023-03-29T16:49:26.633Z,13.70
2023-03-29T16:51:53.669Z,13.80
2023-03-29T16:54:31.701Z,13.70
2023-03-29T16:57:01.217Z,13.60
2023-03-29T16:59:33.032Z,13.60
2023-03-29T17:02:02.241Z,13.60
2023-03-29T17:04:29.252Z,13.50
2023-03-29T17:07:03.745Z,13.50
2023-03-29T17:09:31.026Z,13.50
2023-03-29T17:12:02.453Z,13.40
2023-03-29T17:14:31.532Z,13.40
2023-03-29T17:17:00.943Z,13.30
2023-03-29T17:19:32.863Z,13.30
2023-03-29T17:22:02.279Z,13.30
2023-03-29T17:24:31.506Z,13.30
2023-03-29T17:27:01.003Z,13.30
2023-03-29T17:29:27.956Z,13.20
2023-03-29T17:31:59.564Z,13.20
2023-03-29T17:34:29.558Z,13.10
2023-03-29T17:36:56.678Z,13.10
2023-03-29T17:39:25.212Z,13.10
2023-03-29T17:41:52.587Z,13.10
2023-03-29T17:44:24.317Z,13.10
2023-03-29T17:46:51.368Z,13.00
2023-03-29T17:49:23.232Z,12.90
2023-03-29T17:51:50.424Z,12.70
2023-03-29T17:54:17.495Z,12.50
2023-03-29T17:56:50.482Z,12.50
2023-03-29T17:59:22.315Z,12.40
2023-03-29T18:01:49.302Z,12.30
2023-03-29T18:04:16.284Z,12.20
2023-03-29T18:06:49.291Z,12.10
2023-03-29T18:09:18.878Z,12.10
2023-03-29T18:11:48.246Z,12.00
2023-03-29T18:14:21.300Z,12.00
2023-03-29T18:16:48.368Z,12.10
2023-03-29T18:19:17.519Z,12.00
2023-03-29T18:21:46.592Z,12.00
2023-03-29T18:24:18.308Z,12.00
2023-03-29T18:26:45.249Z,11.90
2023-03-29T18:29:12.629Z,11.90
2023-03-29T18:31:42.952Z,11.80
2023-03-29T18:34:09.962Z,11.70
2023-03-29T18:36:39.307Z,11.60
2023-03-29T18:39:09.638Z,11.50
2023-03-29T18:41:39.028Z,11.50
2023-03-29T18:44:07.701Z,11.50
2023-03-29T18:46:35.200Z,11.40
2023-03-29T18:49:04.410Z,11.40
2023-03-29T18:51:34.364Z,11.40
2023-03-29T18:54:06.080Z,11.40
2023-03-29T18:56:36.011Z,11.40
2023-03-29T18:59:06.415Z,11.40
2023-03-29T19:01:36.141Z,11.30
2023-03-29T19:04:03.213Z,11.20
2023-03-29T19:06:32.464Z,11.10
2023-03-29T19:09:01.999Z,11.00
2023-03-29T19:11:35.963Z,11.00
2023-03-29T19:14:04.592Z,11.00
2023-03-29T19:16:31.648Z,11.00
2023-03-29T19:18:58.605Z,10.90
2023-03-29T19:21:27.861Z,10.90
2023-03-29T19:23:57.235Z,10.80
2023-03-29T19:26:29.516Z,10.80
2023-03-29T19:29:01.839Z,10.70
2023-03-29T19:31:32.429Z,10.70
2023-03-29T19:34:03.990Z,10.70
2023-03-29T19:36:33.449Z,10.60
2023-03-29T19:39:02.720Z,10.60
2023-03-29T19:41:31.791Z,10.60
2023-03-29T19:43:58.780Z,10.60
2023-03-29T19:46:29.015Z,10.60
2023-03-29T19:48:56.301Z,10.60
2023-03-29T19:51:29.069Z,10.60
2023-03-29T19:54:00.778Z,10.50
2023-03-29T19:56:27.987Z,10.50
2023-03-29T19:58:54.965Z,10.50
2023-03-29T20:01:27.263Z,10.50
2023-03-29T20:03:56.523Z,10.60
2023-03-29T20:06:23.964Z,10.60
2023-03-29T20:08:56.476Z,10.60
2023-03-29T20:11:25.693Z,10.70
2023-03-29T20:13:52.708Z,10.70
2023-03-29T20:16:24.469Z,10.70
2023-03-29T20:18:54.009Z,10.70
2023-03-29T20:21:21.099Z,10.80
2023-03-29T20:23:55.400Z,10.80
2023-03-29T20:26:28.168Z,10.80
2023-03-29T20:28:57.416Z,10.90
2023-03-29T20:31:24.478Z,10.90
2023-03-29T20:33:57.554Z,10.80
2023-03-29T20:36:30.684Z,10.80
2023-03-29T20:39:01.270Z,10.80
2023-03-29T20:41:31.524Z,10.90
2023-03-29T20:44:03.051Z,10.90
2023-03-29T20:46:35.339Z,10.90
2023-03-29T20:49:04.584Z,10.90
2023-03-29T20:51:32.228Z,10.90
2023-03-29T20:54:04.766Z,10.90
2023-03-29T20:56:42.638Z,10.90
2023-03-29T20:59:14.431Z,11.00
2023-03-29T21:01:47.132Z,11.10
2023-03-29T21:04:16.396Z,11.10
2023-03-29T21:06:45.871Z,11.20
2023-03-29T21:09:15.933Z,11.20
2023-03-29T21:11:50.846Z,11.30
2023-03-29T21:14:23.203Z,11.30
2023-03-29T21:16:50.213Z,11.40
2023-03-29T21:19:21.524Z,11.40
2023-03-29T21:21:52.209Z,11.40
2023-03-29T21:24:21.810Z,11.50
2023-03-29T21:26:51.492Z,11.50
2023-03-29T21:29:23.071Z,11.50
2023-03-29T21:31:50.138Z,11.50
2023-03-29T21:34:17.084Z,11.40
2023-03-29T21:36:44.178Z,11.50
2023-03-29T21:39:11.177Z,11.50
2023-03-29T21:41:38.106Z,11.50
2023-03-29T21:44:08.070Z,11.50
2023-03-29T21:46:37.635Z,11.50
2023-03-29T21:49:06.747Z,11.50
2023-03-29T21:51:39.105Z,11.50
2023-03-29T21:54:12.628Z,11.50
2023-03-29T21:56:39.698Z,11.50
2023-03-29T21:59:06.680Z,11.50
2023-03-29T22:01:33.976Z,11.50
2023-03-29T22:04:04.216Z,11.50
2023-03-29T22:06:33.421Z,11.60
2023-03-29T22:09:03.229Z,11.60
2023-03-29T22:11:32.442Z,11.60
2023-03-29T22:14:04.958Z,11.50
2023-03-29T22:16:37.237Z,11.50
2023-03-29T22:19:08.719Z,11.50
2023-03-29T22:21:44.221Z,11.50
2023-03-29T22:24:13.590Z,11.50
2023-03-29T22:26:45.457Z,11.50
2023-03-29T22:29:14.656Z,11.50
2023-03-29T22:31:41.609Z,11.60
2023-03-29T22:34:08.545Z,11.50
2023-03-29T22:36:37.989Z,11.50
2023-03-29T22:39:05.811Z,11.50
2023-03-29T22:41:37.691Z,11.50
2023-03-29T22:44:07.615Z,11.50
2023-03-29T22:46:36.982Z,11.50
2023-03-29T22:49:08.499Z,11.50
2023-03-29T22:51:38.498Z,11.40
2023-03-29T22:54:05.484Z,11.40
2023-03-29T22:56:39.172Z,11.40
2023-03-29T22:59:11.001Z,11.40
2023-03-29T23:01:42.726Z,11.50
2023-03-29T23:04:12.266Z,11.50
2023-03-29T23:06:41.590Z,11.50
2023-03-29T23:09:09.575Z,11.50
2023-03-29T23:11:36.665Z,11.50
2023-03-29T23:14:04.208Z,11.50
2023-03-29T23:16:36.966Z,11.50
2023-03-29T23:19:04.944Z,11.50
2023-03-29T23:21:32.271Z,11.50
2023-03-29T23:24:01.559Z,11.50
2023-03-29T23:26:28.513Z,11.50
2023-03-29T23:28:58.569Z,11.50
2023-03-29T23:31:28.061Z,11.50
2023-03-29T23:33:55.088Z,11.50
2023-03-29T23:36:31.129Z,11.50
2023-03-29T23:39:02.723Z,11.50
2023-03-29T23:41:32.182Z,11.50
2023-03-29T23:44:01.266Z,11.50
2023-03-29T23:46:31.336Z,11.50
2023-03-29T23:49:00.580Z,11.50
2023-03-29T23:51:29.682Z,11.50
2023-03-29T23:53:59.203Z,11.50
2023-03-29T23:56:26.222Z,11.50
2023-03-29T23:58:53.276Z,11.50
